Time,TemperatureF,DewpointF,PressureIn,WindDirection,WindDirectionDegrees,WindSpeedMPH,WindSpeedGustMPH,Humidity,HourlyPrecipIn,Conditions,Clouds,dailyrainin,SoftwareType,DateUTC
2013-07-17 00:01:00,72.5,68.1,30.32,SSE,157,0.0,0.0,86,0.00,,,0.04,WUHU21623XXSP,2013-07-17 04:01:00,
2013-07-17 00:06:00,72.5,68.1,30.32,SSE,157,0.0,0.0,86,0.00,,,0.00,WUHU21623XXSP,2013-07-17 04:06:00,
2013-07-17 00:11:00,72.3,67.9,30.32,SSE,157,0.0,0.0,86,0.00,,,0.00,WUHU21623XXSP,2013-07-17 04:11:00,
2013-07-17 00:16:00,72.3,67.9,30.32,SSE,157,0.0,0.0,86,0.00,,,0.00,WUHU21623XXSP,2013-07-17 04:16:00,
2013-07-17 00:21:00,72.3,67.9,30.31,SSE,157,0.0,0.0,86,0.00,,,0.00,WUHU21623XXSP,2013-07-17 04:21:00,
2013-07-17 00:26:00,72.3,67.9,30.31,SSE,157,0.0,0.0,86,0.00,,,0.00,WUHU21623XXSP,2013-07-17 04:26:00,
2013-07-17 00:31:00,72.3,67.9,30.31,SSE,157,0.0,0.0,86,0.00,,,0.00,WUHU21623XXSP,2013-07-17 04:31:00,
2013-07-17 00:36:00,72.1,67.7,30.31,SSE,157,0.0,0.0,86,0.00,,,0.00,WUHU21623XXSP,2013-07-17 04:36:00,
2013-07-17 00:41:00,72.1,67.7,30.31,SSE,157,0.0,0.0,86,0.00,,,0.00,WUHU21623XXSP,2013-07-17 04:41:00,
2013-07-17 00:46:00,72.0,67.5,30.31,SSE,157,0.0,0.0,86,0.00,,,0.00,WUHU21623XXSP,2013-07-17 04:46:00,
2013-07-17 00:51:00,71.8,67.4,30.30,SSE,157,0.0,0.0,86,0.00,,,0.00,WUHU21623XXSP,2013-07-17 04:51:00,
2013-07-17 00:56:00,71.8,67.4,30.31,SSE,157,0.0,0.0,86,0.00,,,0.00,WUHU21623XXSP,2013-07-17 04:56:00,
2013-07-17 00:59:00,71.8,67.4,30.31,SSE,157,0.0,0.0,86,0.00,,,0.00,WUHU21623XXSP,2013-07-17 04:59:00,
2013-07-17 01:04:00,71.6,67.5,30.31,SSE,157,0.0,0.0,87,0.00,,,0.00,WUHU21623XXSP,2013-07-17 05:04:00,
2013-07-17 01:09:00,71.4,67.3,30.31,SSE,157,0.0,0.0,87,0.00,,,0.00,WUHU21623XXSP,2013-07-17 05:09:00,
2013-07-17 01:14:00,71.4,67.3,30.31,SSE,157,0.0,0.0,87,0.00,,,0.00,WUHU21623XXSP,2013-07-17 05:14:00,
2013-07-17 01:19:00,71.4,67.3,30.30,SSE,157,0.0,0.0,87,0.00,,,0.00,WUHU21623XXSP,2013-07-17 05:19:00,
2013-07-17 01:24:00,71.4,67.3,30.30,SSE,157,0.0,0.0,87,0.00,,,0.00,WUHU21623XXSP,2013-07-17 05:24:00,
2013-07-17 01:29:00,71.4,67.3,30.30,SSE,157,0.0,0.0,87,0.00,,,0.00,WUHU21623XXSP,2013-07-17 05:29:00,
2013-07-17 01:34:00,71.4,67.3,30.30,SSE,157,0.0,0.0,87,0.00,,,0.00,WUHU21623XXSP,2013-07-17 05:34:00,
2013-07-17 01:39:00,71.4,67.3,30.30,SSE,157,0.0,0.0,87,0.00,,,0.00,WUHU21623XXSP,2013-07-17 05:39:00,
2013-07-17 01:44:00,71.4,67.3,30.30,SSE,157,0.0,0.0,87,0.00,,,0.00,WUHU21623XXSP,2013-07-17 05:44:00,
2013-07-17 01:49:00,71.4,67.3,30.29,SSE,157,0.0,0.0,87,0.00,,,0.00,WUHU21623XXSP,2013-07-17 05:49:00,
2013-07-17 01:54:00,71.4,67.3,30.29,SSE,157,0.0,0.0,87,0.00,,,0.00,WUHU21623XXSP,2013-07-17 05:54:00,
2013-07-17 01:59:00,71.2,67.2,30.29,SSE,157,0.0,0.0,87,0.00,,,0.00,WUHU21623XXSP,2013-07-17 05:59:00,
2013-07-17 02:04:00,71.2,67.2,30.29,SSE,157,0.0,0.0,87,0.00,,,0.00,WUHU21623XXSP,2013-07-17 06:04:00,
2013-07-17 02:09:00,71.2,67.2,30.29,SSE,157,0.0,0.0,87,0.00,,,0.00,WUHU21623XXSP,2013-07-17 06:09:00,
2013-07-17 02:14:00,71.2,67.2,30.28,SSE,157,0.0,0.0,87,0.00,,,0.00,WUHU21623XXSP,2013-07-17 06:14:00,
2013-07-17 02:19:00,71.2,67.2,30.28,SSE,157,0.0,0.0,87,0.00,,,0.00,WUHU21623XXSP,2013-07-17 06:19:00,
2013-07-17 02:24:00,71.2,67.2,30.29,SSE,157,0.0,0.0,87,0.00,,,0.00,WUHU21623XXSP,2013-07-17 06:24:00,
2013-07-17 02:29:00,71.2,67.2,30.29,SSE,157,0.0,0.0,87,0.00,,,0.00,WUHU21623XXSP,2013-07-17 06:29:00,
2013-07-17 02:34:00,71.1,67.2,30.29,SSE,157,0.0,0.0,87,0.00,,,0.00,WUHU21623XXSP,2013-07-17 06:34:00,
2013-07-17 02:39:00,71.1,67.0,30.29,SSE,157,0.0,0.0,87,0.00,,,0.00,WUHU21623XXSP,2013-07-17 06:39:00,
2013-07-17 02:44:00,70.9,66.8,30.29,SSE,157,0.0,0.0,87,0.00,,,0.00,WUHU21623XXSP,2013-07-17 06:44:00,
2013-07-17 02:49:00,70.9,66.8,30.28,SSE,157,0.0,0.0,87,0.00,,,0.00,WUHU21623XXSP,2013-07-17 06:49:00,
2013-07-17 02:54:00,70.9,66.8,30.28,SSE,157,0.0,0.0,87,0.00,,,0.00,WUHU21623XXSP,2013-07-17 06:54:00,
2013-07-17 02:59:00,70.9,66.8,30.28,SSE,157,0.0,0.0,87,0.00,,,0.00,WUHU21623XXSP,2013-07-17 06:59:00,
2013-07-17 03:04:00,70.9,66.8,30.28,SSE,157,0.0,0.0,87,0.00,,,0.00,WUHU21623XXSP,2013-07-17 07:04:00,
2013-07-17 03:09:00,70.9,66.8,30.28,SSE,157,0.0,0.0,87,0.00,,,0.00,WUHU21623XXSP,2013-07-17 07:09:00,
2013-07-17 03:14:00,70.9,66.8,30.28,SSE,157,0.0,0.0,87,0.00,,,0.00,WUHU21623XXSP,2013-07-17 07:14:00,
2013-07-17 03:19:00,70.9,66.8,30.28,SSE,157,0.0,0.0,87,0.00,,,0.00,WUHU21623XXSP,2013-07-17 07:19:00,
2013-07-17 03:24:00,70.9,66.8,30.28,SSE,157,0.0,0.0,87,0.00,,,0.00,WUHU21623XXSP,2013-07-17 07:24:00,
2013-07-17 03:29:00,70.9,66.8,30.28,SSE,157,0.0,0.0,87,0.00,,,0.00,WUHU21623XXSP,2013-07-17 07:29:00,
2013-07-17 03:34:00,70.9,66.8,30.28,SSE,157,0.0,0.0,87,0.00,,,0.00,WUHU21623XXSP,2013-07-17 07:34:00,
2013-07-17 03:39:00,70.9,66.8,30.29,SSE,157,0.0,0.0,87,0.00,,,0.00,WUHU21623XXSP,2013-07-17 07:39:00,
2013-07-17 03:44:00,70.9,66.8,30.29,SSE,157,0.0,0.0,87,0.00,,,0.00,WUHU21623XXSP,2013-07-17 07:44:00,
2013-07-17 03:49:00,70.9,66.8,30.29,SSE,157,0.0,0.0,87,0.00,,,0.00,WUHU21623XXSP,2013-07-17 07:49:00,
2013-07-17 03:54:00,70.9,66.8,30.29,SSE,157,0.0,0.0,87,0.00,,,0.00,WUHU21623XXSP,2013-07-17 07:54:00,
2013-07-17 03:59:00,70.9,67.1,30.29,SSE,157,0.0,0.0,88,0.00,,,0.00,WUHU21623XXSP,2013-07-17 07:59:00,
2013-07-17 04:04:00,70.9,67.1,30.29,SSE,157,0.0,0.0,88,0.00,,,0.00,WUHU21623XXSP,2013-07-17 08:04:00,
2013-07-17 04:09:00,70.7,67.1,30.30,SSE,157,0.0,0.0,88,0.00,,,0.00,WUHU21623XXSP,2013-07-17 08:09:00,
2013-07-17 04:14:00,70.7,67.0,30.29,SSE,157,0.0,0.0,88,0.00,,,0.00,WUHU21623XXSP,2013-07-17 08:14:00,
2013-07-17 04:19:00,70.7,67.0,30.30,SSE,157,0.0,0.0,88,0.00,,,0.00,WUHU21623XXSP,2013-07-17 08:19:00,
2013-07-17 04:24:00,70.7,67.0,30.29,SSE,157,0.0,0.0,88,0.00,,,0.00,WUHU21623XXSP,2013-07-17 08:24:00,
2013-07-17 04:29:00,70.9,67.1,30.31,SSE,157,0.0,0.0,88,0.00,,,0.00,WUHU21623XXSP,2013-07-17 08:29:00,
2013-07-17 04:34:00,70.7,67.0,30.30,SSE,157,0.0,0.0,88,0.00,,,0.00,WUHU21623XXSP,2013-07-17 08:34:00,
2013-07-17 04:39:00,70.7,67.0,30.30,SSE,157,0.0,0.0,88,0.00,,,0.00,WUHU21623XXSP,2013-07-17 08:39:00,
2013-07-17 04:44:00,70.7,67.0,30.30,SSE,157,0.0,0.0,88,0.00,,,0.00,WUHU21623XXSP,2013-07-17 08:44:00,
2013-07-17 04:49:00,70.7,67.0,30.30,SSE,157,0.0,0.0,88,0.00,,,0.00,WUHU21623XXSP,2013-07-17 08:49:00,
2013-07-17 04:54:00,70.7,67.0,30.31,SSE,157,0.0,0.0,88,0.00,,,0.00,WUHU21623XXSP,2013-07-17 08:54:00,
2013-07-17 04:59:00,70.7,67.0,30.31,SSE,157,0.0,0.0,88,0.00,,,0.00,WUHU21623XXSP,2013-07-17 08:59:00,
2013-07-17 05:04:00,70.7,67.0,30.31,SSE,157,0.0,0.0,88,0.00,,,0.00,WUHU21623XXSP,2013-07-17 09:04:00,
2013-07-17 05:09:00,70.7,67.0,30.30,SSE,157,0.0,0.0,88,0.00,,,0.00,WUHU21623XXSP,2013-07-17 09:09:00,
2013-07-17 05:14:00,70.7,67.0,30.31,SSE,157,0.0,0.0,88,0.00,,,0.00,WUHU21623XXSP,2013-07-17 09:14:00,
2013-07-17 05:19:00,70.7,67.0,30.31,SSE,157,0.0,0.0,88,0.00,,,0.00,WUHU21623XXSP,2013-07-17 09:19:00,
2013-07-17 05:24:00,70.7,67.0,30.31,SSE,157,0.0,0.0,88,0.00,,,0.00,WUHU21623XXSP,2013-07-17 09:24:00,
2013-07-17 05:29:00,70.7,67.0,30.31,SSE,157,0.0,0.0,88,0.00,,,0.00,WUHU21623XXSP,2013-07-17 09:29:00,
2013-07-17 05:34:00,70.7,67.0,30.31,SSE,157,0.0,0.0,88,0.00,,,0.00,WUHU21623XXSP,2013-07-17 09:34:00,
2013-07-17 05:39:00,70.7,66.6,30.31,SSE,157,0.0,0.0,87,0.00,,,0.00,WUHU21623XXSP,2013-07-17 09:39:00,
2013-07-17 05:44:00,70.7,66.6,30.30,SSE,157,0.0,0.0,87,0.00,,,0.00,WUHU21623XXSP,2013-07-17 09:44:00,
2013-07-17 05:49:00,70.5,66.4,30.31,SSE,157,0.0,0.0,87,0.00,,,0.00,WUHU21623XXSP,2013-07-17 09:49:00,
2013-07-17 05:54:00,70.5,66.4,30.31,SSE,157,0.0,0.0,87,0.00,,,0.00,WUHU21623XXSP,2013-07-17 09:54:00,
2013-07-17 05:59:00,70.5,66.4,30.31,SSE,157,0.0,0.0,87,0.00,,,0.00,WUHU21623XXSP,2013-07-17 09:59:00,
2013-07-17 06:04:00,70.5,66.4,30.31,SSE,157,0.0,0.0,87,0.00,,,0.00,WUHU21623XXSP,2013-07-17 10:04:00,
2013-07-17 06:09:00,70.5,66.4,30.32,SSE,157,0.0,0.0,87,0.00,,,0.00,WUHU21623XXSP,2013-07-17 10:09:00,
2013-07-17 06:14:00,70.5,66.4,30.32,SSE,157,0.0,0.0,87,0.00,,,0.00,WUHU21623XXSP,2013-07-17 10:14:00,
2013-07-17 06:19:00,70.5,66.4,30.32,SSE,157,0.0,0.0,87,0.00,,,0.00,WUHU21623XXSP,2013-07-17 10:19:00,
2013-07-17 06:24:00,70.5,66.4,30.32,SSE,157,0.0,0.0,87,0.00,,,0.00,WUHU21623XXSP,2013-07-17 10:24:00,
2013-07-17 06:29:00,70.5,66.4,30.32,SSE,157,0.0,0.0,87,0.00,,,0.00,WUHU21623XXSP,2013-07-17 10:29:00,
2013-07-17 06:34:00,70.5,66.4,30.32,SSE,157,0.0,0.0,87,0.00,,,0.00,WUHU21623XXSP,2013-07-17 10:34:00,
2013-07-17 06:39:00,70.5,66.8,30.32,SSE,157,0.0,0.0,88,0.00,,,0.00,WUHU21623XXSP,2013-07-17 10:39:00,
2013-07-17 06:44:00,70.5,66.8,30.32,SSE,157,0.0,0.0,88,0.00,,,0.00,WUHU21623XXSP,2013-07-17 10:44:00,
2013-07-17 06:49:00,70.5,66.8,30.32,SSE,157,0.0,0.0,88,0.00,,,0.00,WUHU21623XXSP,2013-07-17 10:49:00,
2013-07-17 06:54:00,70.5,66.8,30.32,SSE,157,0.0,0.0,88,0.00,,,0.00,WUHU21623XXSP,2013-07-17 10:54:00,
2013-07-17 06:59:00,70.7,67.0,30.32,South,180,0.0,0.0,88,0.00,,,0.00,WUHU21623XXSP,2013-07-17 10:59:00,
2013-07-17 07:04:00,70.7,67.0,30.32,South,180,0.0,0.0,88,0.00,,,0.00,WUHU21623XXSP,2013-07-17 11:04:00,
2013-07-17 07:09:00,70.7,67.0,30.32,SSE,157,0.0,0.0,88,0.00,,,0.00,WUHU21623XXSP,2013-07-17 11:09:00,
2013-07-17 07:14:00,70.7,67.0,30.32,SSE,157,0.0,0.0,88,0.00,,,0.00,WUHU21623XXSP,2013-07-17 11:14:00,
2013-07-17 07:19:00,70.9,67.0,30.32,SSE,157,0.0,0.0,88,0.00,,,0.00,WUHU21623XXSP,2013-07-17 11:19:00,
2013-07-17 07:24:00,70.9,67.1,30.32,SSE,157,0.0,0.0,88,0.00,,,0.00,WUHU21623XXSP,2013-07-17 11:24:00,
2013-07-17 07:29:00,70.9,67.1,30.32,SSE,157,0.0,0.0,88,0.00,,,0.00,WUHU21623XXSP,2013-07-17 11:29:00,
2013-07-17 07:34:00,70.9,67.1,30.32,SSE,157,0.0,0.0,88,0.00,,,0.00,WUHU21623XXSP,2013-07-17 11:34:00,
2013-07-17 07:39:00,71.2,67.5,30.33,SSE,157,0.0,0.0,88,0.00,,,0.00,WUHU21623XXSP,2013-07-17 11:39:00,
2013-07-17 07:44:00,71.2,67.5,30.32,SSE,157,0.0,0.0,88,0.00,,,0.00,WUHU21623XXSP,2013-07-17 11:44:00,
2013-07-17 07:49:00,71.2,67.5,30.33,SSE,157,0.0,0.0,88,0.00,,,0.00,WUHU21623XXSP,2013-07-17 11:49:00,
2013-07-17 07:54:00,71.4,67.7,30.33,South,180,0.0,0.0,88,0.00,,,0.00,WUHU21623XXSP,2013-07-17 11:54:00,
2013-07-17 07:59:00,71.4,67.7,30.33,SSE,157,0.0,0.0,88,0.00,,,0.00,WUHU21623XXSP,2013-07-17 11:59:00,
2013-07-17 08:04:00,71.6,67.5,30.33,SSE,157,0.0,0.0,87,0.00,,,0.00,WUHU21623XXSP,2013-07-17 12:04:00,
2013-07-17 08:09:00,71.8,67.7,30.33,SSE,157,0.0,0.0,87,0.00,,,0.00,WUHU21623XXSP,2013-07-17 12:09:00,
2013-07-17 08:14:00,71.8,67.7,30.33,SSE,157,0.0,0.0,87,0.00,,,0.00,WUHU21623XXSP,2013-07-17 12:14:00,
2013-07-17 08:19:00,72.0,67.9,30.33,South,180,0.0,0.0,87,0.00,,,0.00,WUHU21623XXSP,2013-07-17 12:19:00,
2013-07-17 08:24:00,72.3,68.2,30.33,SSE,157,0.0,0.0,87,0.00,,,0.00,WUHU21623XXSP,2013-07-17 12:24:00,
2013-07-17 08:29:00,72.3,68.2,30.33,SSE,157,0.0,0.0,87,0.00,,,0.00,WUHU21623XXSP,2013-07-17 12:29:00,
2013-07-17 08:34:00,72.5,68.4,30.33,South,180,0.0,0.0,87,0.00,,,0.00,WUHU21623XXSP,2013-07-17 12:34:00,
2013-07-17 08:39:00,72.7,68.6,30.33,SSE,157,0.0,0.0,87,0.00,,,0.00,WUHU21623XXSP,2013-07-17 12:39:00,
2013-07-17 08:44:00,72.7,68.3,30.33,SSE,157,0.0,0.0,86,0.00,,,0.00,WUHU21623XXSP,2013-07-17 12:44:00,
2013-07-17 08:49:00,72.9,68.4,30.33,SSE,157,0.0,0.0,86,0.00,,,0.00,WUHU21623XXSP,2013-07-17 12:49:00,
2013-07-17 08:54:00,73.2,68.8,30.33,SSE,157,0.0,0.0,86,0.00,,,0.00,WUHU21623XXSP,2013-07-17 12:54:00,
2013-07-17 08:59:00,73.2,68.8,30.33,South,180,0.0,0.0,86,0.00,,,0.00,WUHU21623XXSP,2013-07-17 12:59:00,
2013-07-17 09:04:00,73.2,68.8,30.34,South,180,0.0,0.0,86,0.00,,,0.00,WUHU21623XXSP,2013-07-17 13:04:00,
2013-07-17 09:09:00,73.6,69.2,30.34,SSE,157,0.0,0.0,86,0.00,,,0.00,WUHU21623XXSP,2013-07-17 13:09:00,
2013-07-17 09:14:00,73.8,69.3,30.34,South,180,0.0,0.0,86,0.00,,,0.00,WUHU21623XXSP,2013-07-17 13:14:00,
2013-07-17 09:19:00,73.9,69.5,30.34,South,180,0.0,0.0,86,0.00,,,0.00,WUHU21623XXSP,2013-07-17 13:19:00,
2013-07-17 09:24:00,74.1,69.3,30.34,SSE,157,0.0,0.0,85,0.00,,,0.00,WUHU21623XXSP,2013-07-17 13:24:00,
2013-07-17 09:29:00,74.1,69.3,30.34,SSE,157,0.0,0.0,85,0.00,,,0.00,WUHU21623XXSP,2013-07-17 13:29:00,
2013-07-17 09:34:00,74.3,69.5,30.34,SSE,157,0.0,0.0,85,0.00,,,0.00,WUHU21623XXSP,2013-07-17 13:34:00,
2013-07-17 09:39:00,74.5,69.7,30.34,SSE,157,0.0,0.0,85,0.00,,,0.00,WUHU21623XXSP,2013-07-17 13:39:00,
2013-07-17 09:44:00,74.8,70.1,30.34,SSE,157,0.0,0.0,85,0.00,,,0.00,WUHU21623XXSP,2013-07-17 13:44:00,
2013-07-17 09:49:00,74.8,70.1,30.34,SSE,157,0.0,0.0,85,0.00,,,0.00,WUHU21623XXSP,2013-07-17 13:49:00,
2013-07-17 09:54:00,75.0,70.3,30.34,SSE,157,0.0,0.0,85,0.00,,,0.00,WUHU21623XXSP,2013-07-17 13:54:00,
2013-07-17 09:59:00,75.4,70.3,30.33,SSE,157,0.0,0.0,84,0.00,,,0.00,WUHU21623XXSP,2013-07-17 13:59:00,
2013-07-17 10:04:00,75.4,70.3,30.34,SSE,157,0.0,0.0,84,0.00,,,0.00,WUHU21623XXSP,2013-07-17 14:04:00,
2013-07-17 10:09:00,75.7,70.2,30.33,SSE,157,0.0,0.0,83,0.00,,,0.00,WUHU21623XXSP,2013-07-17 14:09:00,
2013-07-17 10:14:00,75.9,70.4,30.33,SSE,157,0.0,0.0,83,0.00,,,0.00,WUHU21623XXSP,2013-07-17 14:14:00,
2013-07-17 10:19:00,76.3,70.7,30.33,SSE,157,0.0,0.0,83,0.00,,,0.00,WUHU21623XXSP,2013-07-17 14:19:00,
2013-07-17 10:24:00,76.6,70.7,30.33,SSE,157,0.0,0.0,82,0.00,,,0.00,WUHU21623XXSP,2013-07-17 14:24:00,
2013-07-17 10:29:00,76.8,70.9,30.33,SSE,157,0.0,0.0,82,0.00,,,0.00,WUHU21623XXSP,2013-07-17 14:29:00,
2013-07-17 10:34:00,77.0,70.7,30.33,SSE,157,0.0,0.0,81,0.00,,,0.00,WUHU21623XXSP,2013-07-17 14:34:00,
2013-07-17 10:39:00,77.7,71.4,30.33,SSE,157,0.0,0.0,81,0.00,,,0.00,WUHU21623XXSP,2013-07-17 14:39:00,
2013-07-17 10:44:00,78.1,71.8,30.33,SSE,157,0.0,0.0,81,0.00,,,0.00,WUHU21623XXSP,2013-07-17 14:44:00,
2013-07-17 10:49:00,78.4,71.8,30.33,WSW,247,0.0,0.0,80,0.00,,,0.00,WUHU21623XXSP,2013-07-17 14:49:00,
2013-07-17 10:54:00,78.4,71.8,30.33,West,270,0.0,0.0,80,0.00,,,0.00,WUHU21623XXSP,2013-07-17 14:54:00,
2013-07-17 10:59:00,78.6,72.0,30.33,West,270,0.0,0.0,80,0.00,,,0.00,WUHU21623XXSP,2013-07-17 14:59:00,
2013-07-17 11:04:00,79.2,72.5,30.32,West,270,0.0,0.0,80,0.00,,,0.00,WUHU21623XXSP,2013-07-17 15:04:00,
2013-07-17 11:09:00,80.2,73.2,30.32,SSW,202,0.0,0.0,80,0.00,,,0.00,WUHU21623XXSP,2013-07-17 15:09:00,
2013-07-17 11:14:00,80.4,72.6,30.32,SSW,202,0.0,0.0,77,0.00,,,0.00,WUHU21623XXSP,2013-07-17 15:14:00,
2013-07-17 11:19:00,80.8,72.9,30.32,West,270,0.0,0.0,77,0.00,,,0.00,WUHU21623XXSP,2013-07-17 15:19:00,
2013-07-17 11:24:00,81.1,72.9,30.32,WNW,292,0.0,0.0,76,0.00,,,0.00,WUHU21623XXSP,2013-07-17 15:24:00,
2013-07-17 11:29:00,81.1,73.3,30.32,WNW,292,0.0,0.0,77,0.00,,,0.00,WUHU21623XXSP,2013-07-17 15:29:00,
2013-07-17 11:34:00,81.3,73.4,30.32,WNW,292,0.0,0.0,77,0.00,,,0.00,WUHU21623XXSP,2013-07-17 15:34:00,
2013-07-17 11:39:00,81.7,73.4,30.32,WNW,292,0.0,0.0,76,0.00,,,0.00,WUHU21623XXSP,2013-07-17 15:39:00,
2013-07-17 11:44:00,81.7,73.4,30.32,SE,135,0.0,0.0,76,0.00,,,0.00,WUHU21623XXSP,2013-07-17 15:44:00,
2013-07-17 11:49:00,82.2,73.9,30.32,SE,135,0.0,0.0,76,0.00,,,0.00,WUHU21623XXSP,2013-07-17 15:49:00,
2013-07-17 11:54:00,82.2,73.5,30.32,SE,135,0.0,0.0,75,0.00,,,0.00,WUHU21623XXSP,2013-07-17 15:54:00,
2013-07-17 11:59:00,82.4,73.7,30.32,SE,135,0.0,0.0,75,0.00,,,0.00,WUHU21623XXSP,2013-07-17 15:59:00,
2013-07-17 12:04:00,82.2,73.5,30.31,SE,135,0.0,0.0,75,0.00,,,0.00,WUHU21623XXSP,2013-07-17 16:04:00,
2013-07-17 12:09:00,82.0,73.3,30.31,SE,135,0.0,0.0,75,0.00,,,0.00,WUHU21623XXSP,2013-07-17 16:09:00,
2013-07-17 12:14:00,82.6,73.8,30.31,SSE,157,0.0,0.0,75,0.00,,,0.00,WUHU21623XXSP,2013-07-17 16:14:00,
2013-07-17 12:19:00,83.1,74.4,30.31,SSE,157,0.0,0.0,75,0.00,,,0.00,WUHU21623XXSP,2013-07-17 16:19:00,
2013-07-17 12:24:00,84.2,74.2,30.31,SSE,157,0.0,0.0,72,0.00,,,0.00,WUHU21623XXSP,2013-07-17 16:24:00,
2013-07-17 12:29:00,84.9,74.1,30.31,South,180,0.0,0.0,70,0.00,,,0.00,WUHU21623XXSP,2013-07-17 16:29:00,
2013-07-17 12:34:00,85.1,73.8,30.30,SSE,157,0.0,0.0,69,0.00,,,0.00,WUHU21623XXSP,2013-07-17 16:34:00,
2013-07-17 12:39:00,84.7,73.5,30.30,West,270,0.0,0.0,69,0.00,,,0.00,WUHU21623XXSP,2013-07-17 16:39:00,
2013-07-17 12:44:00,84.2,73.4,30.30,West,270,0.0,0.0,70,0.00,,,0.00,WUHU21623XXSP,2013-07-17 16:44:00,
2013-07-17 12:49:00,84.0,73.2,30.30,West,270,0.0,0.0,70,0.00,,,0.00,WUHU21623XXSP,2013-07-17 16:49:00,
2013-07-17 12:54:00,84.4,73.1,30.30,WNW,292,0.0,0.0,69,0.00,,,0.00,WUHU21623XXSP,2013-07-17 16:54:00,
2013-07-17 12:59:00,84.9,73.2,30.30,West,270,0.0,0.0,68,0.00,,,0.00,WUHU21623XXSP,2013-07-17 16:59:00,
2013-07-17 13:04:00,85.1,73.4,30.30,West,270,0.0,0.0,68,0.00,,,0.00,WUHU21623XXSP,2013-07-17 17:04:00,
2013-07-17 13:09:00,84.9,72.7,30.30,West,270,0.0,0.0,67,0.00,,,0.00,WUHU21623XXSP,2013-07-17 17:09:00,
2013-07-17 13:14:00,84.7,72.6,30.29,NNW,337,0.0,0.0,67,0.00,,,0.00,WUHU21623XXSP,2013-07-17 17:14:00,
2013-07-17 13:19:00,84.6,71.9,30.29,NNW,337,0.0,0.0,66,0.00,,,0.00,WUHU21623XXSP,2013-07-17 17:19:00,
2013-07-17 13:24:00,84.9,72.7,30.29,NW,315,0.0,0.0,67,0.00,,,0.00,WUHU21623XXSP,2013-07-17 17:24:00,
2013-07-17 13:29:00,85.3,72.6,30.29,NW,315,0.0,0.0,66,0.00,,,0.00,WUHU21623XXSP,2013-07-17 17:29:00,
2013-07-17 13:34:00,85.6,73.0,30.29,NW,315,0.0,0.0,66,0.00,,,0.00,WUHU21623XXSP,2013-07-17 17:34:00,
2013-07-17 13:39:00,85.5,73.3,30.29,NW,315,0.0,0.0,67,0.00,,,0.00,WUHU21623XXSP,2013-07-17 17:39:00,
2013-07-17 13:44:00,85.3,73.1,30.29,NW,315,0.0,0.0,67,0.00,,,0.00,WUHU21623XXSP,2013-07-17 17:44:00,
2013-07-17 13:49:00,85.6,73.4,30.28,NW,315,0.0,0.0,67,0.00,,,0.00,WUHU21623XXSP,2013-07-17 17:49:00,
2013-07-17 13:54:00,85.8,72.7,30.28,NW,315,0.0,0.0,65,0.00,,,0.00,WUHU21623XXSP,2013-07-17 17:54:00,
2013-07-17 13:59:00,85.3,71.7,30.28,NW,315,0.0,0.0,64,0.00,,,0.00,WUHU21623XXSP,2013-07-17 17:59:00,
2013-07-17 14:04:00,84.9,72.3,30.28,NW,315,0.0,0.0,66,0.00,,,0.00,WUHU21623XXSP,2013-07-17 18:04:00,
2013-07-17 14:09:00,85.5,72.6,30.27,WSW,247,0.0,0.0,64,0.00,,,0.00,WUHU21623XXSP,2013-07-17 18:09:00,
2013-07-17 14:14:00,85.6,71.6,30.27,WSW,247,0.0,0.0,63,0.00,,,0.00,WUHU21623XXSP,2013-07-17 18:14:00,
2013-07-17 14:19:00,85.8,71.3,30.27,West,270,0.0,0.0,62,0.00,,,0.00,WUHU21623XXSP,2013-07-17 18:19:00,
2013-07-17 14:24:00,85.8,70.8,30.27,NNE,22,0.0,0.0,61,0.00,,,0.00,WUHU21623XXSP,2013-07-17 18:24:00,
2013-07-17 14:29:00,86.2,71.6,30.27,NE,45,0.0,0.0,62,0.00,,,0.00,WUHU21623XXSP,2013-07-17 18:29:00,
2013-07-17 14:34:00,86.4,71.8,30.26,North,0,0.0,0.0,62,0.00,,,0.00,WUHU21623XXSP,2013-07-17 18:34:00,
2013-07-17 14:39:00,86.7,72.2,30.26,NW,315,0.0,0.0,62,0.00,,,0.00,WUHU21623XXSP,2013-07-17 18:39:00,
2013-07-17 14:44:00,86.9,72.3,30.26,NW,315,0.0,0.0,62,0.00,,,0.00,WUHU21623XXSP,2013-07-17 18:44:00,
2013-07-17 14:49:00,86.5,71.5,30.26,NW,315,0.0,0.0,61,0.00,,,0.00,WUHU21623XXSP,2013-07-17 18:49:00,
2013-07-17 14:54:00,86.7,71.7,30.26,NW,315,0.0,0.0,61,0.00,,,0.00,WUHU21623XXSP,2013-07-17 18:54:00,
2013-07-17 14:59:00,86.7,71.7,30.25,NW,315,0.0,0.0,61,0.00,,,0.00,WUHU21623XXSP,2013-07-17 18:59:00,
2013-07-17 15:04:00,86.5,71.1,30.24,NW,315,0.0,0.0,60,0.00,,,0.00,WUHU21623XXSP,2013-07-17 19:04:00,
2013-07-17 15:09:00,86.5,71.5,30.24,NW,315,0.0,0.0,61,0.00,,,0.00,WUHU21623XXSP,2013-07-17 19:09:00,
2013-07-17 15:14:00,86.7,71.7,30.24,NW,315,0.0,0.0,61,0.00,,,0.00,WUHU21623XXSP,2013-07-17 19:14:00,
2013-07-17 15:19:00,87.1,72.1,30.24,NW,315,0.0,0.0,61,0.00,,,0.00,WUHU21623XXSP,2013-07-17 19:19:00,
2013-07-17 15:24:00,87.4,72.4,30.24,NW,315,0.0,0.0,61,0.00,,,0.00,WUHU21623XXSP,2013-07-17 19:24:00,
2013-07-17 15:29:00,87.6,72.6,30.24,NNW,337,0.0,0.0,61,0.00,,,0.00,WUHU21623XXSP,2013-07-17 19:29:00,
2013-07-17 15:34:00,87.4,72.0,30.23,NNW,337,0.0,0.0,60,0.00,,,0.00,WUHU21623XXSP,2013-07-17 19:34:00,
2013-07-17 15:39:00,87.4,72.0,30.23,NNW,337,0.0,0.0,60,0.00,,,0.00,WUHU21623XXSP,2013-07-17 19:39:00,
2013-07-17 15:44:00,87.4,71.4,30.23,NNW,337,0.0,0.0,59,0.00,,,0.00,WUHU21623XXSP,2013-07-17 19:44:00,
2013-07-17 15:49:00,87.1,71.1,30.23,NNW,337,0.0,0.0,59,0.00,,,0.00,WUHU21623XXSP,2013-07-17 19:49:00,
2013-07-17 15:54:00,87.1,71.1,30.23,NNW,337,0.0,0.0,59,0.00,,,0.00,WUHU21623XXSP,2013-07-17 19:54:00,
2013-07-17 15:59:00,87.1,71.6,30.23,NNW,337,0.0,0.0,60,0.00,,,0.00,WUHU21623XXSP,2013-07-17 19:59:00,
2013-07-17 16:04:00,86.9,71.4,30.23,NNW,337,0.0,0.0,60,0.00,,,0.00,WUHU21623XXSP,2013-07-17 20:04:00,
2013-07-17 16:09:00,87.1,72.1,30.23,SE,135,0.0,0.0,61,0.00,,,0.00,WUHU21623XXSP,2013-07-17 20:09:00,
2013-07-17 16:14:00,87.1,72.5,30.24,SE,135,0.0,0.0,62,0.00,,,0.00,WUHU21623XXSP,2013-07-17 20:14:00,
2013-07-17 16:19:00,87.3,72.2,30.23,SE,135,0.0,0.0,61,0.00,,,0.00,WUHU21623XXSP,2013-07-17 20:19:00,
2013-07-17 16:24:00,87.1,72.1,30.23,SE,135,0.0,0.0,61,0.00,,,0.00,WUHU21623XXSP,2013-07-17 20:24:00,
2013-07-17 16:29:00,87.1,72.1,30.24,SE,135,0.0,0.0,61,0.00,,,0.00,WUHU21623XXSP,2013-07-17 20:29:00,
2013-07-17 16:34:00,87.1,71.6,30.23,ESE,112,0.0,0.0,59,0.00,,,0.00,WUHU21623XXSP,2013-07-17 20:34:00,
2013-07-17 16:39:00,87.1,71.1,30.23,ESE,112,0.0,0.0,59,0.00,,,0.00,WUHU21623XXSP,2013-07-17 20:39:00,
2013-07-17 16:44:00,86.7,71.2,30.23,ESE,112,0.0,0.0,60,0.00,,,0.00,WUHU21623XXSP,2013-07-17 20:44:00,
2013-07-17 16:49:00,86.7,71.2,30.23,ESE,112,0.0,0.0,60,0.00,,,0.00,WUHU21623XXSP,2013-07-17 20:49:00,
2013-07-17 16:54:00,86.9,71.4,30.23,ESE,112,0.0,0.0,60,0.00,,,0.00,WUHU21623XXSP,2013-07-17 20:54:00,
2013-07-17 16:59:00,86.9,71.4,30.24,NE,45,0.0,0.0,60,0.00,,,0.00,WUHU21623XXSP,2013-07-17 20:59:00,
2013-07-17 17:04:00,87.1,71.6,30.22,NE,45,0.0,0.0,60,0.00,,,0.00,WUHU21623XXSP,2013-07-17 21:04:00,
2013-07-17 17:09:00,87.1,72.1,30.23,NE,45,0.0,0.0,61,0.00,,,0.00,WUHU21623XXSP,2013-07-17 21:09:00,
2013-07-17 17:14:00,87.3,71.2,30.22,NE,45,0.0,0.0,59,0.00,,,0.00,WUHU21623XXSP,2013-07-17 21:14:00,
2013-07-17 17:19:00,86.7,70.7,30.21,NE,45,0.0,0.0,59,0.00,,,0.00,WUHU21623XXSP,2013-07-17 21:19:00,
2013-07-17 17:24:00,86.4,70.9,30.21,NE,45,0.0,0.0,60,0.00,,,0.00,WUHU21623XXSP,2013-07-17 21:24:00,
2013-07-17 17:29:00,86.0,70.5,30.21,NNE,22,0.0,0.0,60,0.00,,,0.00,WUHU21623XXSP,2013-07-17 21:29:00,
2013-07-17 17:34:00,85.8,70.8,30.21,NNE,22,0.0,0.0,61,0.00,,,0.00,WUHU21623XXSP,2013-07-17 21:34:00,
2013-07-17 17:39:00,84.7,71.2,30.21,NNE,22,0.0,0.0,64,0.00,,,0.00,WUHU21623XXSP,2013-07-17 21:39:00,
2013-07-17 17:44:00,84.0,71.0,30.22,North,0,0.0,0.0,65,0.00,,,0.00,WUHU21623XXSP,2013-07-17 21:44:00,
2013-07-17 17:49:00,82.8,70.2,30.21,North,0,0.0,0.0,66,0.00,,,0.00,WUHU21623XXSP,2013-07-17 21:49:00,
2013-07-17 17:54:00,82.2,70.1,30.21,North,0,0.0,0.0,67,0.00,,,0.00,WUHU21623XXSP,2013-07-17 21:54:00,
2013-07-17 17:59:00,82.0,69.9,30.21,NW,315,0.0,0.0,67,0.00,,,0.00,WUHU21623XXSP,2013-07-17 21:59:00,
2013-07-17 18:04:00,81.3,68.8,30.20,North,0,0.0,0.0,66,0.00,,,0.00,WUHU21623XXSP,2013-07-17 22:04:00,
2013-07-17 18:09:00,81.0,68.7,30.21,NW,315,0.0,0.0,66,0.00,,,0.00,WUHU21623XXSP,2013-07-17 22:09:00,
2013-07-17 18:14:00,80.8,68.3,30.21,NW,315,0.0,0.0,66,0.00,,,0.00,WUHU21623XXSP,2013-07-17 22:14:00,
2013-07-17 18:19:00,80.2,68.3,30.21,NW,315,0.0,0.0,67,0.00,,,0.00,WUHU21623XXSP,2013-07-17 22:19:00,
2013-07-17 18:24:00,79.7,67.7,30.21,NW,315,0.0,0.0,67,0.00,,,0.00,WUHU21623XXSP,2013-07-17 22:24:00,
2013-07-17 18:29:00,79.5,68.0,30.21,NW,315,0.0,0.0,68,0.00,,,0.00,WUHU21623XXSP,2013-07-17 22:29:00,
2013-07-17 18:34:00,79.5,68.0,30.21,NW,315,0.0,0.0,68,0.00,,,0.00,WUHU21623XXSP,2013-07-17 22:34:00,
2013-07-17 18:39:00,79.5,68.0,30.22,NW,315,0.0,0.0,68,0.00,,,0.00,WUHU21623XXSP,2013-07-17 22:39:00,
2013-07-17 18:44:00,79.5,68.0,30.21,NW,315,0.0,0.0,68,0.00,,,0.00,WUHU21623XXSP,2013-07-17 22:44:00,
2013-07-17 18:49:00,79.2,68.1,30.21,NW,315,0.0,0.0,69,0.00,,,0.00,WUHU21623XXSP,2013-07-17 22:49:00,
2013-07-17 18:54:00,79.0,67.9,30.21,NW,315,0.0,0.0,69,0.00,,,0.00,WUHU21623XXSP,2013-07-17 22:54:00,
2013-07-17 18:59:00,79.0,68.4,30.21,NW,315,0.0,0.0,70,0.00,,,0.00,WUHU21623XXSP,2013-07-17 22:59:00,
2013-07-17 19:04:00,78.6,68.0,30.21,NW,315,0.0,0.0,70,0.00,,,0.00,WUHU21623XXSP,2013-07-17 23:04:00,
2013-07-17 19:09:00,78.6,68.0,30.21,NW,315,0.0,0.0,70,0.00,,,0.00,WUHU21623XXSP,2013-07-17 23:09:00,
2013-07-17 19:14:00,78.6,68.0,30.21,NW,315,0.0,0.0,70,0.00,,,0.00,WUHU21623XXSP,2013-07-17 23:14:00,
2013-07-17 19:19:00,78.8,68.6,30.21,NW,315,0.0,0.0,71,0.00,,,0.00,WUHU21623XXSP,2013-07-17 23:19:00,
2013-07-17 19:24:00,78.6,68.4,30.21,NW,315,0.0,0.0,71,0.00,,,0.00,WUHU21623XXSP,2013-07-17 23:24:00,
2013-07-17 19:29:00,78.6,68.4,30.21,NW,315,0.0,0.0,71,0.00,,,0.00,WUHU21623XXSP,2013-07-17 23:29:00,
2013-07-17 19:34:00,78.6,68.4,30.21,NW,315,0.0,0.0,71,0.00,,,0.00,WUHU21623XXSP,2013-07-17 23:34:00,
2013-07-17 19:39:00,78.4,68.6,30.21,NW,315,0.0,0.0,72,0.00,,,0.00,WUHU21623XXSP,2013-07-17 23:39:00,
2013-07-17 19:44:00,78.3,68.6,30.21,NW,315,0.0,0.0,72,0.00,,,0.00,WUHU21623XXSP,2013-07-17 23:44:00,
2013-07-17 19:49:00,78.1,68.3,30.21,NW,315,0.0,0.0,72,0.00,,,0.00,WUHU21623XXSP,2013-07-17 23:49:00,
2013-07-17 19:54:00,78.3,68.5,30.21,NW,315,0.0,0.0,72,0.00,,,0.00,WUHU21623XXSP,2013-07-17 23:54:00,
2013-07-17 19:59:00,78.4,68.6,30.21,NW,315,0.0,0.0,72,0.00,,,0.00,WUHU21623XXSP,2013-07-17 23:59:00,
2013-07-17 20:04:00,78.3,68.5,30.20,NW,315,0.0,0.0,72,0.00,,,0.00,WUHU21623XXSP,2013-07-18 00:04:00,
2013-07-17 20:09:00,78.1,68.3,30.20,NW,315,0.0,0.0,72,0.00,,,0.00,WUHU21623XXSP,2013-07-18 00:09:00,
2013-07-17 20:14:00,78.1,68.7,30.21,NW,315,0.0,0.0,73,0.00,,,0.00,WUHU21623XXSP,2013-07-18 00:14:00,
2013-07-17 20:19:00,78.1,68.7,30.20,NW,315,0.0,0.0,73,0.00,,,0.00,WUHU21623XXSP,2013-07-18 00:19:00,
2013-07-17 20:24:00,77.7,68.7,30.20,NW,315,0.0,0.0,74,0.00,,,0.00,WUHU21623XXSP,2013-07-18 00:24:00,
2013-07-17 20:29:00,77.5,68.6,30.20,NW,315,0.0,0.0,74,0.00,,,0.00,WUHU21623XXSP,2013-07-18 00:29:00,
2013-07-17 20:34:00,77.5,68.6,30.20,NW,315,0.0,0.0,74,0.00,,,0.00,WUHU21623XXSP,2013-07-18 00:34:00,
2013-07-17 20:39:00,77.5,69.0,30.20,NW,315,0.0,0.0,75,0.00,,,0.00,WUHU21623XXSP,2013-07-18 00:39:00,
2013-07-17 20:44:00,77.5,69.0,30.20,NW,315,0.0,0.0,75,0.00,,,0.00,WUHU21623XXSP,2013-07-18 00:44:00,
2013-07-17 20:49:00,77.4,68.8,30.21,NW,315,0.0,0.0,75,0.00,,,0.00,WUHU21623XXSP,2013-07-18 00:49:00,
2013-07-17 20:54:00,77.4,68.8,30.20,NW,315,0.0,0.0,75,0.00,,,0.00,WUHU21623XXSP,2013-07-18 00:54:00,
2013-07-17 20:59:00,77.4,68.8,30.21,NW,315,0.0,0.0,75,0.00,,,0.00,WUHU21623XXSP,2013-07-18 00:59:00,
2013-07-17 21:04:00,77.2,69.0,30.21,NW,315,0.0,0.0,76,0.00,,,0.00,WUHU21623XXSP,2013-07-18 01:04:00,
2013-07-17 21:05:00,77.2,69.0,30.21,NW,315,0.0,0.0,76,0.00,,,0.00,WUHU21623XXSP,2013-07-18 01:05:00,
2013-07-17 21:10:00,77.2,69.0,30.21,WNW,292,0.0,0.0,76,0.00,,,0.00,WUHU21623XXSP,2013-07-18 01:10:00,
2013-07-17 21:15:00,77.2,69.0,30.22,WNW,292,0.0,0.0,76,0.00,,,0.00,WUHU21623XXSP,2013-07-18 01:15:00,
2013-07-17 21:20:00,77.0,68.8,30.22,WNW,292,0.0,0.0,76,0.00,,,0.00,WUHU21623XXSP,2013-07-18 01:20:00,
2013-07-17 21:25:00,76.8,68.6,30.23,WNW,292,0.0,0.0,76,0.00,,,0.00,WUHU21623XXSP,2013-07-18 01:25:00,
2013-07-17 21:30:00,76.8,68.6,30.23,WNW,292,0.0,0.0,76,0.00,,,0.00,WUHU21623XXSP,2013-07-18 01:30:00,
2013-07-17 21:35:00,76.8,68.6,30.23,WNW,292,0.0,0.0,76,0.00,,,0.00,WUHU21623XXSP,2013-07-18 01:35:00,
2013-07-17 21:40:00,76.6,68.5,30.23,WNW,292,0.0,0.0,76,0.00,,,0.00,WUHU21623XXSP,2013-07-18 01:40:00,
2013-07-17 21:45:00,76.6,68.9,30.23,WNW,292,0.0,0.0,77,0.00,,,0.00,WUHU21623XXSP,2013-07-18 01:45:00,
2013-07-17 21:50:00,76.5,68.9,30.23,WNW,292,0.0,0.0,77,0.00,,,0.00,WUHU21623XXSP,2013-07-18 01:50:00,
2013-07-17 21:55:00,76.3,68.5,30.23,WNW,292,0.0,0.0,77,0.00,,,0.00,WUHU21623XXSP,2013-07-18 01:55:00,
2013-07-17 22:00:00,76.3,68.1,30.23,WNW,292,0.0,0.0,76,0.00,,,0.00,WUHU21623XXSP,2013-07-18 02:00:00,
2013-07-17 22:05:00,76.1,68.4,30.23,SSW,202,0.0,0.0,77,0.00,,,0.00,WUHU21623XXSP,2013-07-18 02:05:00,
2013-07-17 22:10:00,76.1,68.4,30.22,SSW,202,0.0,0.0,77,0.00,,,0.00,WUHU21623XXSP,2013-07-18 02:10:00,
2013-07-17 22:15:00,75.9,68.2,30.23,SSW,202,0.0,0.0,77,0.00,,,0.00,WUHU21623XXSP,2013-07-18 02:15:00,
2013-07-17 22:20:00,75.9,68.2,30.23,SSW,202,0.0,0.0,77,0.00,,,0.00,WUHU21623XXSP,2013-07-18 02:20:00,
2013-07-17 22:25:00,75.9,68.2,30.23,SSW,202,0.0,0.0,77,0.00,,,0.00,WUHU21623XXSP,2013-07-18 02:25:00,
2013-07-17 22:30:00,75.9,68.2,30.24,SSW,202,0.0,0.0,77,0.00,,,0.00,WUHU21623XXSP,2013-07-18 02:30:00,
2013-07-17 22:35:00,75.7,68.2,30.24,SSW,202,0.0,0.0,78,0.00,,,0.00,WUHU21623XXSP,2013-07-18 02:35:00,
2013-07-17 22:40:00,75.7,68.4,30.24,SSW,202,0.0,0.0,78,0.00,,,0.00,WUHU21623XXSP,2013-07-18 02:40:00,
2013-07-17 22:45:00,75.6,68.3,30.23,SSW,202,0.0,0.0,78,0.00,,,0.00,WUHU21623XXSP,2013-07-18 02:45:00,
2013-07-17 22:50:00,75.4,68.5,30.24,SSW,202,0.0,0.0,79,0.00,,,0.00,WUHU21623XXSP,2013-07-18 02:50:00,
2013-07-17 22:55:00,75.4,68.5,30.23,SSW,202,0.0,0.0,79,0.00,,,0.00,WUHU21623XXSP,2013-07-18 02:55:00,
2013-07-17 23:00:00,75.2,68.3,30.24,SSW,202,0.0,0.0,79,0.00,,,0.00,WUHU21623XXSP,2013-07-18 03:00:00,
2013-07-17 23:05:00,75.0,68.1,30.23,SSW,202,0.0,0.0,79,0.00,,,0.00,WUHU21623XXSP,2013-07-18 03:05:00,
2013-07-17 23:10:00,75.0,68.1,30.24,SSW,202,0.0,0.0,79,0.00,,,0.00,WUHU21623XXSP,2013-07-18 03:10:00,
2013-07-17 23:15:00,75.0,68.1,30.24,SSW,202,0.0,0.0,79,0.00,,,0.00,WUHU21623XXSP,2013-07-18 03:15:00,
2013-07-17 23:20:00,74.8,68.0,30.24,SSW,202,0.0,0.0,80,0.00,,,0.00,WUHU21623XXSP,2013-07-18 03:20:00,
2013-07-17 23:25:00,74.7,68.2,30.24,SSW,202,0.0,0.0,80,0.00,,,0.00,WUHU21623XXSP,2013-07-18 03:25:00,
2013-07-17 23:30:00,74.5,68.0,30.24,SSW,202,0.0,0.0,80,0.00,,,0.00,WUHU21623XXSP,2013-07-18 03:30:00,
2013-07-17 23:35:00,74.5,68.0,30.24,SSW,202,0.0,0.0,80,0.00,,,0.00,WUHU21623XXSP,2013-07-18 03:35:00,
2013-07-17 23:40:00,74.3,67.8,30.23,SSW,202,0.0,0.0,80,0.00,,,0.00,WUHU21623XXSP,2013-07-18 03:40:00,
2013-07-17 23:45:00,74.3,68.2,30.22,SSW,202,0.0,0.0,81,0.00,,,0.00,WUHU21623XXSP,2013-07-18 03:45:00,
2013-07-17 23:50:00,74.1,67.6,30.22,SSW,202,0.0,0.0,80,0.00,,,0.00,WUHU21623XXSP,2013-07-18 03:50:00,
2013-07-17 23:55:00,74.1,67.6,30.22,SSW,202,0.0,0.0,80,0.00,,,0.00,WUHU21623XXSP,2013-07-18 03:55:00,